Time;durP1;ratioP1;P1;durP2;ratioP2;P2;SDS_P1;SDS_P2;PMS_P1;PMS_P2;Temp;Humidity;BMP_temperature;BMP_pressure;BME280_temperature;BME280_humidity;BME280_pressure;Samples;Min_cycle;Max_cycle;Signal;HPM_P1;HPM_P2
2022/08/15 00:02:17;;;;;;;;;;;;;;;20.34;33.54;94546.13;4997084;28;19918;-72
2022/08/15 00:04:43;;;;;;;;;;;;;;;20.35;33.60;94545.03;4995720;28;19921;-72
2022/08/15 00:07:08;;;;;;;;;;;;;;;20.49;32.84;94542.63;4992589;28;19918;-72
2022/08/15 00:09:33;;;;;;;;;;;;;;;20.53;33.22;94541.00;4994359;28;20502;-71
2022/08/15 00:11:58;;;;;;;;;;;;;;;20.56;33.84;94542.38;4989751;28;20111;-72
2022/08/15 00:14:29;;;;;;;;;;;;;;;20.44;33.69;94539.91;4992113;28;20272;-72
2022/08/15 00:16:55;;;;;;;;;;;;;;;20.43;33.83;94541.00;4992630;28;19921;-71
2022/08/15 00:19:24;;;;;;;;;;;;;;;20.18;34.68;94550.66;4993655;28;19960;-72
2022/08/15 00:21:50;;;;;;;;;;;;;;;20.21;34.58;94555.53;4993007;28;20207;-72
2022/08/15 00:24:16;;;;;;;;;;;;;;;20.62;33.49;94554.81;4991043;28;20375;-72
2022/08/15 00:26:42;;;;;;;;;;;;;;;20.34;33.90;94546.94;4997364;28;19921;-73
2022/08/15 00:29:08;;;;;;;;;;;;;;;20.03;33.43;94543.34;4991885;28;19994;-72
2022/08/15 00:31:35;;;;;;;;;;;;;;;20.21;33.45;94536.63;4991746;28;20398;-73
2022/08/15 00:34:00;;;;;;;;;;;;;;;20.29;34.16;94538.00;4987227;28;19914;-72
2022/08/15 00:36:25;;;;;;;;;;;;;;;20.25;34.69;94540.41;4991518;28;19945;-72
2022/08/15 00:38:51;;;;;;;;;;;;;;;20.29;34.03;94546.13;4988151;28;19964;-72
2022/08/15 00:44:00;;;;;;;;;;;;;;;20.40;33.77;94558.56;4995027;28;20393;-72
2022/08/15 00:46:26;;;;;;;;;;;;;;;20.37;34.01;94537.47;4989593;28;19921;-72
2022/08/15 00:48:51;;;;;;;;;;;;;;;20.39;33.23;94556.13;4988036;28;20219;-72
2022/08/15 00:51:16;;;;;;;;;;;;;;;20.70;33.48;94558.91;4990272;28;19922;-72
2022/08/15 00:53:43;;;;;;;;;;;;;;;20.75;33.19;94564.31;4987334;28;19928;-72
2022/08/15 00:56:08;;;;;;;;;;;;;;;20.00;33.81;94563.59;4989001;28;20322;-72
2022/08/15 00:58:34;;;;;;;;;;;;;;;20.37;32.17;94553.69;4986476;28;19918;-72
2022/08/15 01:00:59;;;;;;;;;;;;;;;20.56;30.84;94555.91;4992990;28;19926;-72
2022/08/15 01:03:27;;;;;;;;;;;;;;;20.70;30.26;94556.22;4990426;28;20013;-71
2022/08/15 01:05:54;;;;;;;;;;;;;;;20.58;29.99;94553.72;4996264;28;20508;-72
2022/08/15 01:08:19;;;;;;;;;;;;;;;20.87;30.41;94551.34;4986348;28;19936;-72
2022/08/15 01:10:45;;;;;;;;;;;;;;;20.75;30.35;94548.09;4986734;28;19918;-71
2022/08/15 01:13:10;;;;;;;;;;;;;;;20.98;29.43;94556.75;4989762;28;19922;-71
2022/08/15 01:15:36;;;;;;;;;;;;;;;20.07;28.67;94545.25;4987366;28;19937;-71
2022/08/15 01:18:01;;;;;;;;;;;;;;;21.06;27.64;94552.69;4989541;28;19918;-71
2022/08/15 01:20:27;;;;;;;;;;;;;;;20.98;28.28;94552.13;4997145;28;19922;-71
2022/08/15 01:22:52;;;;;;;;;;;;;;;20.97;27.92;94555.16;4995744;28;20020;-71
2022/08/15 01:25:17;;;;;;;;;;;;;;;20.74;27.66;94554.59;4986102;28;20023;-71
2022/08/15 01:27:47;;;;;;;;;;;;;;;20.72;26.99;94552.16;4995408;28;19925;-71
2022/08/15 01:30:15;;;;;;;;;;;;;;;20.91;26.88;94546.22;4988275;28;19922;-71
2022/08/15 01:32:40;;;;;;;;;;;;;;;21.31;26.15;94549.16;5003416;28;20426;-71
2022/08/15 01:35:05;;;;;;;;;;;;;;;21.21;26.91;94549.16;4986601;28;19964;-71
2022/08/15 01:37:31;;;;;;;;;;;;;;;21.06;27.18;94547.28;4996432;28;20386;-71
2022/08/15 01:39:58;;;;;;;;;;;;;;;21.13;26.93;94545.94;4986278;28;20433;-71
2022/08/15 01:42:31;;;;;;;;;;;;;;;20.85;27.01;94548.13;4988007;28;19914;-71
2022/08/15 01:44:58;;;;;;;;;;;;;;;20.61;27.64;94554.00;4992864;28;20142;-71
2022/08/15 01:47:25;;;;;;;;;;;;;;;20.73;27.50;94551.06;4992356;28;20382;-71
2022/08/15 01:49:53;;;;;;;;;;;;;;;20.51;27.92;94548.59;4990446;28;20370;-71
2022/08/15 01:52:18;;;;;;;;;;;;;;;20.21;27.92;94550.13;4987409;28;20516;-71
2022/08/15 01:54:43;;;;;;;;;;;;;;;19.94;28.47;94540.28;4990766;28;19953;-71
2022/08/15 01:57:09;;;;;;;;;;;;;;;20.14;28.27;94549.56;4992487;28;19948;-71
2022/08/15 01:59:34;;;;;;;;;;;;;;;20.09;28.45;94536.88;4987872;28;19921;-71
2022/08/15 02:02:02;;;;;;;;;;;;;;;20.12;28.60;94538.22;4985826;28;20457;-71
2022/08/15 02:04:28;;;;;;;;;;;;;;;20.18;28.25;94534.44;4985927;28;19922;-71
2022/08/15 02:06:54;;;;;;;;;;;;;;;20.07;28.33;94529.03;4991049;28;20306;-71
2022/08/15 02:09:20;;;;;;;;;;;;;;;20.01;27.88;94537.38;4984654;28;19933;-71
2022/08/15 02:11:45;;;;;;;;;;;;;;;20.13;28.06;94537.97;4986635;28;20133;-71
2022/08/15 02:14:11;;;;;;;;;;;;;;;19.98;27.91;94538.72;4987706;28;19960;-71
2022/08/15 02:16:36;;;;;;;;;;;;;;;19.54;28.13;94534.44;4989619;28;19983;-71
2022/08/15 02:19:02;;;;;;;;;;;;;;;19.57;27.98;94532.03;4992116;28;19925;-71
2022/08/15 02:21:28;;;;;;;;;;;;;;;19.82;27.69;94527.03;4985845;28;20391;-71
2022/08/15 02:23:53;;;;;;;;;;;;;;;19.36;28.24;94528.41;4988885;28;19922;-72
2022/08/15 02:26:18;;;;;;;;;;;;;;;19.17;29.10;94528.81;4988530;28;19961;-72
2022/08/15 02:28:44;;;;;;;;;;;;;;;19.38;28.71;94528.16;4985400;28;19932;-72
2022/08/15 02:31:10;;;;;;;;;;;;;;;19.42;28.36;94534.66;4991677;28;20330;-72
2022/08/15 02:33:35;;;;;;;;;;;;;;;19.19;28.85;94531.25;4991774;28;19918;-72
2022/08/15 02:36:00;;;;;;;;;;;;;;;19.35;29.13;94537.59;4986696;28;20301;-72
2022/08/15 02:38:26;;;;;;;;;;;;;;;19.65;28.95;94528.03;4997429;28;19933;-72
2022/08/15 02:40:51;;;;;;;;;;;;;;;19.21;29.30;94534.53;4989716;28;19933;-72
2022/08/15 02:43:16;;;;;;;;;;;;;;;19.08;29.66;94533.88;4990446;28;20058;-73
2022/08/15 02:45:47;;;;;;;;;;;;;;;19.05;29.88;94533.59;4986647;28;20118;-73
2022/08/15 02:48:12;;;;;;;;;;;;;;;19.53;28.59;94536.34;4988148;28;20253;-73
2022/08/15 02:50:37;;;;;;;;;;;;;;;19.46;28.94;94533.88;4984446;28;20468;-72
2022/08/15 02:53:13;;;;;;;;;;;;;;;19.40;29.15;94534.09;4985059;28;19922;-63
2022/08/15 02:55:42;;;;;;;;;;;;;;;19.21;29.68;94540.72;4993418;28;20299;-73
2022/08/15 02:58:09;;;;;;;;;;;;;;;19.65;28.75;94540.72;4997062;28;20410;-73
2022/08/15 03:00:34;;;;;;;;;;;;;;;19.05;30.06;94537.09;4984163;28;19921;-72
2022/08/15 03:03:05;;;;;;;;;;;;;;;18.83;30.04;94526.41;4989922;28;19926;-73
2022/08/15 03:05:31;;;;;;;;;;;;;;;18.58;30.67;94518.91;4991120;28;19925;-72
2022/08/15 03:07:56;;;;;;;;;;;;;;;18.43;31.06;94518.50;4986583;28;19922;-73
2022/08/15 03:10:22;;;;;;;;;;;;;;;17.86;32.21;94509.84;4999749;28;19948;-72
2022/08/15 03:12:58;;;;;;;;;;;;;;;17.52;33.15;94504.56;4993044;28;20290;-72
2022/08/15 03:15:27;;;;;;;;;;;;;;;17.04;33.83;94496.91;4989882;28;20366;-74
2022/08/15 03:17:52;;;;;;;;;;;;;;;16.51;34.75;94492.63;4989873;28;20362;-72
2022/08/15 03:20:18;;;;;;;;;;;;;;;16.45;35.31;94480.16;4987627;28;19921;-73
2022/08/15 03:22:43;;;;;;;;;;;;;;;16.47;35.55;94475.34;4995641;28;19921;-72
2022/08/15 03:25:09;;;;;;;;;;;;;;;16.72;34.93;94479.50;4991963;28;19922;-73
2022/08/15 03:27:34;;;;;;;;;;;;;;;16.71;34.94;94487.81;4988277;28;20461;-73
2022/08/15 03:29:59;;;;;;;;;;;;;;;16.94;34.22;94497.56;4989999;28;20082;-73
2022/08/15 03:32:24;;;;;;;;;;;;;;;17.53;33.27;94488.19;5003158;28;20409;-73
2022/08/15 03:34:50;;;;;;;;;;;;;;;17.34;34.02;94494.91;5003524;28;20460;-74
2022/08/15 03:37:15;;;;;;;;;;;;;;;17.75;33.02;94498.09;4998861;28;19917;-73
2022/08/15 03:39:40;;;;;;;;;;;;;;;17.94;32.68;94502.41;4997887;28;19921;-73
2022/08/15 03:42:07;;;;;;;;;;;;;;;17.73;32.68;94500.25;4997297;28;19973;-72
2022/08/15 03:44:32;;;;;;;;;;;;;;;18.14;32.34;94502.59;4986277;28;19989;-72
2022/08/15 03:46:57;;;;;;;;;;;;;;;18.43;32.06;94493.47;4992223;28;19988;-73
2022/08/15 03:49:23;;;;;;;;;;;;;;;18.20;32.45;94495.41;4995480;28;19933;-73
2022/08/15 03:51:48;;;;;;;;;;;;;;;18.08;32.84;94494.75;4993860;28;19926;-73
2022/08/15 03:54:13;;;;;;;;;;;;;;;18.02;32.79;94489.28;4993532;28;19918;-72
2022/08/15 03:56:39;;;;;;;;;;;;;;;17.86;33.03;94490.19;5002286;28;19928;-72
2022/08/15 03:59:04;;;;;;;;;;;;;;;17.89;33.33;94489.69;4990410;28;20601;-73
2022/08/15 04:01:33;;;;;;;;;;;;;;;17.76;33.36;94482.78;4992217;28;19960;-73
2022/08/15 04:03:58;;;;;;;;;;;;;;;17.88;33.21;94496.94;4988669;28;19932;-73
2022/08/15 04:06:24;;;;;;;;;;;;;;;18.00;32.86;94493.28;4988431;28;19949;-73
2022/08/15 04:08:50;;;;;;;;;;;;;;;18.51;32.24;94495.69;4987460;28;19944;-73
2022/08/15 04:11:16;;;;;;;;;;;;;;;18.52;32.04;94493.78;4985747;28;19913;-72
2022/08/15 04:13:41;;;;;;;;;;;;;;;18.98;31.60;94500.63;4985277;28;19926;-73
2022/08/15 04:16:07;;;;;;;;;;;;;;;19.28;31.07;94501.94;4990295;28;20298;-73
2022/08/15 04:18:32;;;;;;;;;;;;;;;18.93;31.32;94501.41;4987791;28;20496;-72
2022/08/15 04:20:59;;;;;;;;;;;;;;;18.50;31.88;94494.06;4994145;28;19921;-73
2022/08/15 04:23:24;;;;;;;;;;;;;;;18.20;32.70;94499.97;4995526;28;19985;-73
2022/08/15 04:25:49;;;;;;;;;;;;;;;18.39;32.68;94503.91;4987152;28;20258;-73
2022/08/15 04:28:15;;;;;;;;;;;;;;;18.05;33.15;94507.63;4993224;28;20345;-73
2022/08/15 04:30:41;;;;;;;;;;;;;;;18.35;32.83;94510.09;4996003;28;19917;-72
2022/08/15 04:33:09;;;;;;;;;;;;;;;18.42;32.72;94516.06;4990123;28;20020;-72
2022/08/15 04:35:35;;;;;;;;;;;;;;;18.82;32.00;94514.00;4992084;28;19921;-72
2022/08/15 04:38:00;;;;;;;;;;;;;;;19.27;31.24;94528.09;4989853;28;19914;-73
2022/08/15 04:40:26;;;;;;;;;;;;;;;19.49;31.21;94526.31;4991338;28;19928;-72
2022/08/15 04:42:55;;;;;;;;;;;;;;;19.68;31.16;94537.50;4987548;28;20303;-73
2022/08/15 04:45:21;;;;;;;;;;;;;;;19.85;31.15;94543.50;4986596;28;20310;-72
2022/08/15 04:47:46;;;;;;;;;;;;;;;19.98;30.44;94546.81;4986561;28;19926;-72
2022/08/15 04:50:12;;;;;;;;;;;;;;;20.08;30.30;94554.13;4990168;28;20421;-73
2022/08/15 04:52:44;;;;;;;;;;;;;;;20.23;29.71;94550.69;4988549;28;20385;-73
2022/08/15 04:55:09;;;;;;;;;;;;;;;20.39;29.74;94561.53;4994648;28;19921;-72
2022/08/15 04:57:35;;;;;;;;;;;;;;;20.49;29.69;94553.44;4988578;28;20319;-73
2022/08/15 05:00:00;;;;;;;;;;;;;;;20.65;29.52;94557.00;4985656;28;19944;-73
2022/08/15 05:02:25;;;;;;;;;;;;;;;20.76;29.40;94548.91;4991509;28;19913;-72
2022/08/15 05:04:51;;;;;;;;;;;;;;;20.82;29.23;94543.22;4988950;28;19958;-72
2022/08/15 05:07:16;;;;;;;;;;;;;;;20.74;29.38;94530.25;4987905;28;20020;-74
2022/08/15 05:09:43;;;;;;;;;;;;;;;20.56;29.58;94529.66;4989643;28;19918;-74
2022/08/15 05:12:08;;;;;;;;;;;;;;;20.61;29.68;94531.56;4986263;28;19979;-74
2022/08/15 05:14:33;;;;;;;;;;;;;;;20.79;30.39;94534.84;4990477;28;19922;-73
2022/08/15 05:16:59;;;;;;;;;;;;;;;20.84;30.08;94541.06;4986595;28;19917;-74
2022/08/15 05:19:24;;;;;;;;;;;;;;;20.77;29.73;94542.41;4987546;28;20335;-74
2022/08/15 05:21:49;;;;;;;;;;;;;;;21.03;29.45;94542.41;4987018;28;19913;-74
2022/08/15 05:24:14;;;;;;;;;;;;;;;21.11;29.49;94550.78;4989701;28;19918;-74
2022/08/15 05:26:40;;;;;;;;;;;;;;;21.12;29.56;94549.69;4997784;28;19932;-73
2022/08/15 05:29:06;;;;;;;;;;;;;;;21.31;29.20;94556.50;4996261;28;19971;-73
2022/08/15 05:31:32;;;;;;;;;;;;;;;21.42;29.21;94563.53;4990071;28;20371;-73
2022/08/15 05:34:00;;;;;;;;;;;;;;;21.41;29.24;94564.56;4988143;28;19960;-73
2022/08/15 05:36:25;;;;;;;;;;;;;;;21.36;29.42;94557.31;4991132;28;19921;-73
2022/08/15 05:38:52;;;;;;;;;;;;;;;21.36;30.06;94568.13;4984551;28;20287;-73
2022/08/15 05:41:20;;;;;;;;;;;;;;;21.45;30.05;94573.78;4987763;28;19926;-73
2022/08/15 05:43:46;;;;;;;;;;;;;;;21.51;30.19;94572.69;4988317;28;20141;-73
2022/08/15 05:46:21;;;;;;;;;;;;;;;21.54;30.22;94570.50;4994763;28;19921;-73
2022/08/15 05:48:47;;;;;;;;;;;;;;;21.64;30.08;94571.31;4987168;28;20256;-73
2022/08/15 05:51:38;;;;;;;;;;;;;;;21.70;30.63;94571.28;4986483;28;19918;-73
2022/08/15 05:54:10;;;;;;;;;;;;;;;21.63;29.81;94567.00;4997731;28;19922;-73
2022/08/15 05:56:35;;;;;;;;;;;;;;;21.45;29.87;94560.25;4985840;28;20415;-73
2022/08/15 05:59:02;;;;;;;;;;;;;;;21.09;29.94;94561.09;4985992;28;19918;-73
2022/08/15 06:01:29;;;;;;;;;;;;;;;20.98;30.44;94552.13;4986513;28;19932;-73
2022/08/15 06:04:13;;;;;;;;;;;;;;;20.98;30.68;94556.75;4996386;28;19928;-73
2022/08/15 06:06:40;;;;;;;;;;;;;;;21.18;29.53;94557.81;4986649;28;19918;-73
2022/08/15 06:09:31;;;;;;;;;;;;;;;21.41;29.49;94555.66;4987421;28;20020;-73
2022/08/15 06:11:56;;;;;;;;;;;;;;;21.58;29.10;94563.47;4977377;28;19926;-73
2022/08/15 06:14:25;;;;;;;;;;;;;;;21.39;29.66;94555.94;4985413;28;19940;-73
2022/08/15 06:16:52;;;;;;;;;;;;;;;21.24;30.33;94556.72;4987248;28;19925;-73
2022/08/15 06:19:27;;;;;;;;;;;;;;;21.28;30.05;94551.63;4991185;28;20502;-73
2022/08/15 06:22:12;;;;;;;;;;;;;;;21.54;29.82;94551.56;4995873;28;20493;-72
2022/08/15 06:24:46;;;;;;;;;;;;;;;21.83;29.79;94554.47;4987715;28;20409;-73
2022/08/15 06:27:14;;;;;;;;;;;;;;;21.79;30.00;94544.47;4984731;28;19918;-72
2022/08/15 06:30:01;;;;;;;;;;;;;;;22.05;29.35;94542.47;4998340;28;19929;-73
2022/08/15 06:32:44;;;;;;;;;;;;;;;22.08;29.29;94535.69;4985295;28;20009;-72
2022/08/15 06:35:19;;;;;;;;;;;;;;;21.93;29.71;94547.41;4990115;28;20039;-72
2022/08/15 06:37:53;;;;;;;;;;;;;;;21.36;30.33;94557.31;4990216;28;19992;-72
2022/08/15 06:40:22;;;;;;;;;;;;;;;21.94;29.20;94549.84;4985604;28;20315;-72
2022/08/15 06:42:47;;;;;;;;;;;;;;;22.02;29.41;94556.56;4991052;28;19917;-72
2022/08/15 06:45:16;;;;;;;;;;;;;;;21.95;28.48;94551.47;4985657;28;20322;-72
2022/08/15 06:47:42;;;;;;;;;;;;;;;21.47;30.06;94555.38;4990675;28;20068;-72
2022/08/15 06:50:27;;;;;;;;;;;;;;;21.61;29.57;94561.03;4987639;28;20297;-72
2022/08/15 06:52:54;;;;;;;;;;;;;;;21.61;29.57;94554.78;4984422;28;20064;-72
2022/08/15 06:55:20;;;;;;;;;;;;;;;21.80;29.27;94555.03;4984649;28;19924;-72
2022/08/15 06:57:48;;;;;;;;;;;;;;;21.23;30.06;94560.53;5004854;28;20310;-72
2022/08/15 07:00:28;;;;;;;;;;;;;;;20.65;31.30;94558.91;5004112;28;19956;-72
2022/08/15 07:03:12;;;;;;;;;;;;;;;20.82;31.15;94561.34;4986341;28;20170;-72
2022/08/15 07:05:49;;;;;;;;;;;;;;;20.35;31.84;94556.66;5005683;28;19975;-72
2022/08/15 07:08:14;;;;;;;;;;;;;;;20.63;31.72;94550.25;4988981;28;19929;-72
2022/08/15 07:10:44;;;;;;;;;;;;;;;20.54;31.45;94552.63;5004073;28;19968;-72
2022/08/15 07:13:12;;;;;;;;;;;;;;;20.72;31.65;94556.75;4988641;28;19925;-72
2022/08/15 07:15:40;;;;;;;;;;;;;;;20.76;31.50;94549.72;5003121;28;19925;-72
2022/08/15 07:18:24;;;;;;;;;;;;;;;20.42;32.10;94550.16;5009846;28;20562;-72
2022/08/15 07:20:51;;;;;;;;;;;;;;;20.42;32.75;94545.59;5009936;28;19925;-72
2022/08/15 07:23:23;;;;;;;;;;;;;;;20.33;33.06;94539.09;5008783;28;19917;-72
2022/08/15 07:25:49;;;;;;;;;;;;;;;20.04;33.30;94539.53;5007297;28;19928;-72
2022/08/15 07:28:16;;;;;;;;;;;;;;;20.04;33.49;94534.16;5009566;28;19921;-73
2022/08/15 07:30:44;;;;;;;;;;;;;;;20.25;33.11;94536.91;4991194;28;19918;-73
2022/08/15 07:33:10;;;;;;;;;;;;;;;20.58;32.51;94532.91;4990433;28;19928;-72
2022/08/15 07:35:35;;;;;;;;;;;;;;;20.35;33.47;94537.75;4990481;28;19917;-73
2022/08/15 07:38:01;;;;;;;;;;;;;;;20.73;31.98;94534.03;5014007;28;19928;-73
2022/08/15 07:40:28;;;;;;;;;;;;;;;20.34;32.36;94538.84;5010792;28;19945;-71
2022/08/15 07:42:53;;;;;;;;;;;;;;;20.18;32.64;94537.16;4997442;28;19921;-73
2022/08/15 07:45:20;;;;;;;;;;;;;;;20.20;32.52;94540.41;5013244;28;20369;-72
2022/08/15 07:47:59;;;;;;;;;;;;;;;20.12;32.91;94536.31;5003787;28;19925;-72
2022/08/15 07:50:34;;;;;;;;;;;;;;;20.21;32.97;94536.63;5003958;28;20425;-73
2022/08/15 07:53:07;;;;;;;;;;;;;;;20.27;32.46;94543.69;5008574;28;19964;-72
2022/08/15 07:55:32;;;;;;;;;;;;;;;20.44;32.25;94537.22;5000527;28;20696;-72
2022/08/15 07:57:58;;;;;;;;;;;;;;;20.09;32.99;94532.28;5007075;28;20370;-72
2022/08/15 08:00:27;;;;;;;;;;;;;;;20.36;32.25;94536.66;5006675;28;19988;-72
2022/08/15 08:02:55;;;;;;;;;;;;;;;20.20;32.80;94532.31;5006704;28;19929;-72
2022/08/15 08:05:24;;;;;;;;;;;;;;;20.16;34.00;94532.00;5005520;28;19932;-71
2022/08/15 08:07:50;;;;;;;;;;;;;;;20.16;33.55;94533.91;4988909;28;19926;-72
2022/08/15 08:10:15;;;;;;;;;;;;;;;20.25;33.20;94542.31;5015369;28;19924;-72
2022/08/15 08:12:40;;;;;;;;;;;;;;;20.31;32.78;94542.06;5010867;28;19925;-72
2022/08/15 08:15:27;;;;;;;;;;;;;;;20.49;32.77;94543.44;5010012;28;20282;-72
2022/08/15 08:18:01;;;;;;;;;;;;;;;20.34;32.93;94556.94;5016262;28;19921;-72
2022/08/15 08:20:32;;;;;;;;;;;;;;;20.59;32.80;94560.75;5017030;28;20359;-72
2022/08/15 08:23:03;;;;;;;;;;;;;;;20.20;33.10;94562.03;4991375;28;19960;-72
2022/08/15 08:25:44;;;;;;;;;;;;;;;20.01;34.27;94567.06;4994988;28;20487;-73
2022/08/15 08:28:28;;;;;;;;;;;;;;;19.81;34.38;94569.41;5009586;28;19921;-72
2022/08/15 08:31:02;;;;;;;;;;;;;;;19.19;35.15;94577.09;5007981;28;19929;-72
2022/08/15 08:33:37;;;;;;;;;;;;;;;19.82;34.64;94568.31;4999984;28;19946;-72
2022/08/15 08:36:07;;;;;;;;;;;;;;;20.10;34.54;94579.81;4990731;28;19925;-72
2022/08/15 08:38:36;;;;;;;;;;;;;;;19.17;35.00;94576.56;5015126;28;19913;-72
2022/08/15 08:41:29;;;;;;;;;;;;;;;19.28;35.54;94577.47;4994064;28;19986;-72
2022/08/15 08:43:54;;;;;;;;;;;;;;;19.23;36.27;94569.31;5009332;28;19976;-72
2022/08/15 08:46:25;;;;;;;;;;;;;;;18.91;36.92;94571.78;5009591;28;19960;-72
2022/08/15 08:49:09;;;;;;;;;;;;;;;19.20;36.61;94576.03;5010480;28;19921;-72
2022/08/15 08:51:35;;;;;;;;;;;;;;;19.29;36.62;94577.22;5011976;28;19919;-72
2022/08/15 08:54:05;;;;;;;;;;;;;;;19.14;36.80;94580.56;5011488;28;19914;-72
2022/08/15 08:56:34;;;;;;;;;;;;;;;19.45;36.58;94570.03;5012121;28;20033;-72
2022/08/15 08:59:17;;;;;;;;;;;;;;;19.29;37.14;94579.91;5014923;28;20294;-72
2022/08/15 09:01:42;;;;;;;;;;;;;;;18.85;37.83;94577.38;4995429;28;20002;-72
2022/08/15 09:04:09;;;;;;;;;;;;;;;19.14;37.60;94585.19;4992071;28;20386;-71
2022/08/15 09:06:39;;;;;;;;;;;;;;;19.06;38.07;94575.66;5011182;28;20571;-71
2022/08/15 09:09:07;;;;;;;;;;;;;;;19.08;37.91;94585.13;5013631;28;19968;-71
2022/08/15 09:11:37;;;;;;;;;;;;;;;19.44;37.37;94586.47;5016877;28;19963;-71
2022/08/15 09:14:11;;;;;;;;;;;;;;;19.46;38.79;94595.13;4991923;28;20484;-71
2022/08/15 09:16:37;;;;;;;;;;;;;;;19.63;39.35;94596.84;4992711;28;19921;-71
2022/08/15 09:19:21;;;;;;;;;;;;;;;20.20;38.33;94602.56;5013126;28;19925;-72
2022/08/15 09:21:47;;;;;;;;;;;;;;;19.51;39.86;94603.25;5007634;28;20327;-72
2022/08/15 09:24:12;;;;;;;;;;;;;;;20.01;39.10;94604.88;4991025;28;19922;-72
2022/08/15 09:26:40;;;;;;;;;;;;;;;19.15;40.35;94605.69;5007011;28;20286;-72
2022/08/15 09:29:13;;;;;;;;;;;;;;;19.41;40.33;94609.41;5007764;28;20442;-72
2022/08/15 09:31:39;;;;;;;;;;;;;;;19.37;40.54;94623.69;4997394;28;20321;-72
2022/08/15 09:34:05;;;;;;;;;;;;;;;19.87;39.39;94613.44;4989177;28;19933;-72
2022/08/15 09:36:36;;;;;;;;;;;;;;;19.29;40.43;94616.88;5011209;28;20008;-71
2022/08/15 09:39:13;;;;;;;;;;;;;;;19.64;40.09;94622.78;4996452;28;20347;-72
2022/08/15 09:41:56;;;;;;;;;;;;;;;19.39;40.64;94627.75;5005445;28;20015;-72
2022/08/15 09:44:23;;;;;;;;;;;;;;;19.81;39.68;94628.81;5003920;28;19961;-71
2022/08/15 09:46:49;;;;;;;;;;;;;;;19.10;41.14;94621.81;5005263;28;19921;-71
2022/08/15 09:49:27;;;;;;;;;;;;;;;19.02;41.01;94623.09;5005141;28;19935;-72
2022/08/15 09:52:11;;;;;;;;;;;;;;;19.95;39.30;94622.94;5015736;28;20210;-72
2022/08/15 09:54:43;;;;;;;;;;;;;;;19.95;38.96;94617.53;5010670;28;19995;-72
2022/08/15 09:57:27;;;;;;;;;;;;;;;20.42;38.03;94621.28;4984612;28;19933;-72
2022/08/15 09:59:57;;;;;;;;;;;;;;;19.61;39.72;94623.31;5005621;28;19932;-72
2022/08/15 10:02:23;;;;;;;;;;;;;;;20.64;37.50;94616.75;5011322;28;20066;-71
2022/08/15 10:04:48;;;;;;;;;;;;;;;20.73;37.24;94624.06;5010529;28;19929;-71
2022/08/15 10:07:13;;;;;;;;;;;;;;;20.89;36.58;94629.50;5019349;28;19925;-71
2022/08/15 10:09:42;;;;;;;;;;;;;;;20.63;37.24;94617.84;5014448;28;20004;-72
2022/08/15 10:12:08;;;;;;;;;;;;;;;20.58;37.36;94632.94;5005737;28;19925;-71
2022/08/15 10:14:37;;;;;;;;;;;;;;;20.73;37.43;94636.78;5008898;28;20329;-72
2022/08/15 10:17:20;;;;;;;;;;;;;;;21.18;36.04;94633.59;5005295;28;19978;-71
2022/08/15 10:19:45;;;;;;;;;;;;;;;20.10;38.82;94631.13;5007152;28;20110;-72
2022/08/15 10:22:22;;;;;;;;;;;;;;;20.86;36.50;94630.88;5009993;28;20120;-72
2022/08/15 10:25:06;;;;;;;;;;;;;;;21.25;35.98;94629.53;5008169;28;20029;-72
2022/08/15 10:27:41;;;;;;;;;;;;;;;20.79;36.97;94638.41;5014977;28;19932;-72
2022/08/15 10:30:10;;;;;;;;;;;;;;;19.76;38.85;94645.00;4993177;28;20323;-72
2022/08/15 10:32:40;;;;;;;;;;;;;;;20.43;37.98;94641.00;5005171;28;20381;-72
2022/08/15 10:35:26;;;;;;;;;;;;;;;19.93;38.83;94642.13;4989823;28;20393;-72
2022/08/15 10:37:56;;;;;;;;;;;;;;;19.72;39.37;94654.69;5003825;28;19932;-72
2022/08/15 10:40:24;;;;;;;;;;;;;;;19.57;39.60;94647.28;5004054;28;19921;-73
2022/08/15 10:42:54;;;;;;;;;;;;;;;19.74;39.70;94644.44;5007267;28;20305;-72
2022/08/15 10:45:27;;;;;;;;;;;;;;;19.78;39.47;94648.22;4990683;28;19929;-72
2022/08/15 10:48:05;;;;;;;;;;;;;;;20.81;37.72;94633.56;4996641;28;20570;-72
2022/08/15 10:50:44;;;;;;;;;;;;;;;20.79;36.96;94633.00;4993263;28;19989;-72
2022/08/15 10:53:22;;;;;;;;;;;;;;;21.73;35.54;94641.16;4973884;28;20075;-71
2022/08/15 10:55:47;;;;;;;;;;;;;;;21.20;36.55;94647.66;4993436;28;20023;-71
2022/08/15 10:58:38;;;;;;;;;;;;;;;21.07;36.02;94646.31;5006677;28;21008;-71
2022/08/15 11:01:17;;;;;;;;;;;;;;;21.92;34.60;94643.31;5004625;28;19979;-71
2022/08/15 11:03:49;;;;;;;;;;;;;;;23.19;32.46;94643.28;4994724;28;19924;-72
2022/08/15 11:06:14;;;;;;;;;;;;;;;23.10;32.43;94640.31;5010026;28;19964;-72
2022/08/15 11:08:46;;;;;;;;;;;;;;;22.13;33.55;94653.00;5012660;28;20348;-73
2022/08/15 11:11:11;;;;;;;;;;;;;;;22.79;32.94;94647.59;5004992;28;19925;-72
2022/08/15 11:13:36;;;;;;;;;;;;;;;22.92;32.20;94643.41;4989599;28;20314;-72
2022/08/15 11:16:18;;;;;;;;;;;;;;;21.40;35.17;94638.75;4988619;28;19992;-73
2022/08/15 11:18:51;;;;;;;;;;;;;;;22.35;33.24;94634.75;5010236;28;20570;-72
2022/08/15 11:21:26;;;;;;;;;;;;;;;22.57;33.63;94637.13;4991224;28;19960;-71
2022/08/15 11:23:55;;;;;;;;;;;;;;;22.56;32.88;94646.34;5010508;28;19925;-72
2022/08/15 11:26:22;;;;;;;;;;;;;;;22.31;33.82;94647.25;5008964;28;19921;-72
2022/08/15 11:28:48;;;;;;;;;;;;;;;22.55;33.48;94658.28;5008975;28;20405;-72
2022/08/15 11:31:18;;;;;;;;;;;;;;;22.58;33.54;94649.59;5010099;28;20460;-70
2022/08/15 11:33:44;;;;;;;;;;;;;;;22.51;33.75;94649.06;5006208;28;19933;-73
2022/08/15 11:36:12;;;;;;;;;;;;;;;22.98;32.89;94652.34;5007625;28;20388;-73
2022/08/15 11:38:42;;;;;;;;;;;;;;;22.41;32.77;94650.72;4991353;28;19917;-72
2022/08/15 11:41:07;;;;;;;;;;;;;;;22.31;33.26;94668.94;4989996;28;19968;-72
2022/08/15 11:43:32;;;;;;;;;;;;;;;20.93;35.89;94657.66;4991704;28;19946;-73
2022/08/15 11:45:57;;;;;;;;;;;;;;;21.71;34.44;94660.38;5012843;28;20027;-72
2022/08/15 11:48:27;;;;;;;;;;;;;;;22.31;33.29;94658.91;5012093;28;19967;-72
2022/08/15 11:50:57;;;;;;;;;;;;;;;21.83;34.79;94670.13;4994263;28;19975;-72
2022/08/15 11:53:22;;;;;;;;;;;;;;;21.73;35.13;94668.25;5014708;28;19925;-72
2022/08/15 11:55:47;;;;;;;;;;;;;;;21.09;35.44;94666.59;4979835;28;19944;-73
2022/08/15 11:58:12;;;;;;;;;;;;;;;22.56;33.51;94650.97;5020349;28;19928;-72
2022/08/15 12:00:40;;;;;;;;;;;;;;;21.99;34.42;94658.19;5007704;28;19924;-71
2022/08/15 12:03:20;;;;;;;;;;;;;;;22.53;32.83;94668.59;4991238;28;19914;-71
2022/08/15 12:05:46;;;;;;;;;;;;;;;22.81;32.11;94662.78;5007781;28;19944;-71
2022/08/15 12:08:11;;;;;;;;;;;;;;;22.17;33.34;94671.41;5009799;28;20370;-71
2022/08/15 12:10:40;;;;;;;;;;;;;;;22.53;32.48;94657.75;5001738;28;19917;-71
2022/08/15 12:13:05;;;;;;;;;;;;;;;21.84;32.81;94667.13;5010264;28;20545;-71
2022/08/15 12:15:31;;;;;;;;;;;;;;;22.96;31.42;94659.97;4990844;28;19921;-71
2022/08/15 12:18:14;;;;;;;;;;;;;;;23.73;30.10;94660.47;5012430;28;19921;-71
2022/08/15 12:20:41;;;;;;;;;;;;;;;22.68;31.72;94669.63;4994853;28;20064;-71
2022/08/15 12:23:26;;;;;;;;;;;;;;;23.45;30.47;94665.59;5008988;28;19924;-71
2022/08/15 12:25:52;;;;;;;;;;;;;;;22.81;30.47;94676.34;5007966;28;19975;-71
2022/08/15 12:28:18;;;;;;;;;;;;;;;23.95;29.72;94661.91;5007186;28;19925;-71
2022/08/15 12:30:45;;;;;;;;;;;;;;;24.06;29.15;94657.16;5021087;28;20318;-71
2022/08/15 12:33:11;;;;;;;;;;;;;;;24.83;27.78;94658.16;5016545;28;19917;-71
2022/08/15 12:35:36;;;;;;;;;;;;;;;25.46;26.92;94660.03;5007449;28;20524;-71
2022/08/15 12:38:01;;;;;;;;;;;;;;;25.12;27.71;94671.94;4995550;28;20421;-71
2022/08/15 12:40:27;;;;;;;;;;;;;;;25.08;27.12;94669.81;5007085;28;19975;-71
2022/08/15 12:42:52;;;;;;;;;;;;;;;25.95;25.51;94665.16;5005780;28;19918;-71
2022/08/15 12:45:21;;;;;;;;;;;;;;;24.10;28.21;94674.53;5006082;28;19926;-71
2022/08/15 12:47:46;;;;;;;;;;;;;;;25.77;26.05;94667.66;5018119;28;19937;-71
2022/08/15 12:50:12;;;;;;;;;;;;;;;25.54;26.32;94670.22;4988190;28;19918;-71
2022/08/15 12:52:37;;;;;;;;;;;;;;;25.40;26.83;94663.88;5014768;28;19921;-71
2022/08/15 12:55:03;;;;;;;;;;;;;;;25.21;26.55;94673.72;5007225;28;19992;-70
2022/08/15 12:57:28;;;;;;;;;;;;;;;25.45;26.55;94661.91;5006278;28;20026;-70
2022/08/15 12:59:54;;;;;;;;;;;;;;;26.07;25.79;94651.06;5021201;28;19998;-70